Latest Weather Observations for Maatsuyker Island

IDT60801

Issued at 12:35 am EDT Monday 24 November 2014 (issued every 30 minutes, with the page automatically refreshed every 10 minutes)

About weather observations | Map of weather stations | Latest weather observations for TAS | Other Formats
Station Details ID: 094041 Name: MAATSUYKER ISLAND LIGHTHOUSE Lat: -43.66 Lon: 146.27 Height: 146.5 m
Data from the previous 72 hours. | See also: Recent months at Maatsuyker Island
Date/Time
EDT
Temp
°C
App
Temp
°C
Dew
Point
Rel
Hum
%
Delta-T
°C
Wind Press
QNH
hPa
Press
MSL
hPa
Rain
since 9 am
mm
Dir
 
Spd
km/h
Gust
km/h
Spd
kts
Gust
kts
24/12:30am 12.9 7.7 7.4 69 2.7 NNW 24 30 13 16 1010.1 - 0.0
24/12:00am 12.8 8.4 7.5 70 2.6 NNW 20 26 11 14 1010.3 1010.4 0.0
 
Date/Time
EDT
Temp
°C
App
Temp
°C
Dew
Point
Rel
Hum
%
Delta-T
°C
Wind Press
QNH
hPa
Press
MSL
hPa
Rain
since 9 am
mm
Dir
 
Spd
km/h
Gust
km/h
Spd
kts
Gust
kts
23/11:30pm 13.1 8.7 7.6 69 2.7 NNW 20 26 11 14 1010.8 - 0.0
23/11:00pm 13.2 8.2 8.0 71 2.6 NNW 24 28 13 15 1011.1 - 0.0
23/10:30pm 13.2 9.2 8.4 72 2.4 NNW 19 20 10 11 1011.3 - 0.0
23/10:00pm 13.2 8.3 8.4 72 2.4 NNW 24 32 13 17 1011.1 - 0.0
23/09:30pm 13.1 7.1 8.8 75 2.2 NNW 30 39 16 21 1011.1 - 0.0
23/09:00pm 13.3 6.8 8.1 71 2.6 NNW 32 41 17 22 1010.8 1010.9 0.0
23/08:30pm 13.1 6.8 8.8 75 2.2 NNW 32 39 17 21 1010.9 - 0.0
23/08:00pm 13.3 5.9 8.5 72 2.4 NNW 37 44 20 24 1010.6 - 0.0
23/07:30pm 13.7 6.2 7.9 68 2.9 NNW 37 50 20 27 1010.2 - 0.0
23/07:00pm 14.0 7.5 8.9 71 2.6 NNW 33 43 18 23 1010.2 - 0.0
23/06:30pm 14.5 8.0 9.1 70 2.8 NNW 33 41 18 22 1009.8 - 0.0
23/06:00pm 13.8 5.2 8.7 71 2.6 NNW 44 54 24 29 1009.5 1009.6 0.0
23/05:30pm 13.6 4.7 9.1 74 2.3 NW 46 54 25 29 1009.4 - 0.0
23/05:00pm 13.9 6.1 8.1 68 2.9 NNW 39 46 21 25 1009.3 - 0.0
23/04:30pm 14.0 5.8 8.0 67 3.0 NNW 41 48 22 26 1008.9 - 0.0
23/04:00pm 13.8 4.9 7.6 66 3.1 NNW 44 54 24 29 1009.0 - 0.0
23/03:30pm 13.8 4.4 8.9 72 2.5 NNW 48 54 26 29 1009.3 - 0.0
23/03:00pm 13.7 5.3 8.8 72 2.5 NW 43 59 23 32 1009.0 1009.1 0.0
23/02:30pm 13.8 4.3 8.5 70 2.7 NNW 48 61 26 33 1008.9 - 0.0
23/02:00pm 13.2 3.1 9.1 76 2.1 NNW 52 61 28 33 1008.6 - 0.0
23/01:30pm 13.0 1.6 9.1 77 2.0 NNW 59 69 32 37 1008.4 - 0.0
23/01:00pm 12.8 1.1 9.5 80 1.7 NNW 61 72 33 39 1008.1 - 0.0
23/12:30pm 13.3 1.6 9.2 76 2.1 NNW 61 76 33 41 1008.1 - 0.0
23/12:00pm 13.2 2.3 8.9 75 2.2 NNW 56 69 30 37 1007.9 1008.0 0.0
23/11:30am 13.0 1.8 8.4 73 2.3 NNW 57 67 31 36 1007.8 - 0.0
23/11:00am 12.6 1.1 8.8 77 1.9 NNW 59 69 32 37 1007.7 - 0.0
23/10:30am 12.0 1.1 9.0 82 1.5 NNW 56 65 30 35 1007.9 - 0.0
23/10:00am 12.1 1.2 8.9 81 1.6 NNW 56 63 30 34 1007.7 - 0.0
23/09:30am 11.8 2.3 8.4 80 1.7 NNW 48 57 26 31 1007.8 - 0.0
23/09:00am 11.8 3.9 9.2 84 1.3 NW 41 56 22 30 1007.4 1007.5 1.8
23/08:30am 11.6 2.6 9.0 84 1.3 NNW 46 56 25 30 1007.0 - 1.8
23/08:00am 11.4 1.4 9.2 86 1.1 NW 52 59 28 32 1006.7 - 1.8
23/07:30am 11.3 1.0 9.7 90 0.8 NW 54 61 29 33 1006.1 - 1.8
23/07:00am 11.6 1.6 10.6 94 0.5 NW 54 63 29 34 1005.5 - 1.8
23/06:30am 11.8 3.0 10.8 94 0.5 NNW 48 56 26 30 1005.1 - 1.8
23/06:00am 11.5 3.5 10.5 94 0.5 NW 43 57 23 31 1004.9 1005.0 1.8
23/05:30am 11.6 1.9 10.6 94 0.5 NW 52 61 28 33 1004.5 - 1.8
23/05:00am 11.8 2.3 11.0 95 0.4 NNW 52 59 28 32 1004.1 - 1.8
23/04:30am 12.0 2.8 10.9 93 0.6 NNW 50 59 27 32 1003.7 - 1.8
23/04:00am 11.8 1.8 10.8 94 0.5 NW 54 59 29 32 1003.5 - 1.8
23/03:30am 11.9 2.8 11.1 95 0.4 NW 50 54 27 29 1003.6 - 1.8
23/03:00am 12.0 2.9 11.4 96 0.3 NNW 50 57 27 31 1003.6 1003.7 1.8
23/02:30am 12.1 3.5 11.7 97 0.2 NW 48 54 26 29 1003.6 - 1.8
23/02:00am 12.3 3.8 11.9 97 0.2 NNW 48 54 26 29 1003.5 - 1.8
23/01:30am 12.5 4.0 12.1 97 0.2 NW 48 54 26 29 1003.3 - 1.8
23/01:00am 12.6 6.6 12.2 97 0.2 NNW 35 43 19 23 1003.6 - 1.6
23/12:30am 12.7 7.1 12.1 96 0.3 NNW 33 39 18 21 1003.6 - 0.8
23/12:00am 12.8 7.4 12.1 95 0.4 NNW 32 39 17 21 1003.5 1003.6 0.8
 
Date/Time
EDT
Temp
°C
App
Temp
°C
Dew
Point
Rel
Hum
%
Delta-T
°C
Wind Press
QNH
hPa
Press
MSL
hPa
Rain
since 9 am
mm
Dir
 
Spd
km/h
Gust
km/h
Spd
kts
Gust
kts
22/11:30pm 13.0 7.3 11.9 93 0.6 NNW 33 39 18 21 1003.7 - 0.8
22/11:00pm 13.4 6.1 11.5 88 1.0 NNW 41 46 22 25 1003.3 - 0.8
22/10:30pm 13.6 6.3 11.4 86 1.2 NNW 41 48 22 26 1003.4 - 0.8
22/10:00pm 13.9 6.9 11.1 83 1.5 NNW 39 50 21 27 1003.3 - 0.8
22/09:30pm 14.2 8.2 10.8 80 1.8 NNW 33 46 18 25 1003.2 - 0.8
22/09:20pm 14.0 8.3 11.0 82 1.6 NNW 32 50 17 27 1003.1 - 0.8
22/09:00pm 13.7 9.2 11.3 85 1.3 NNW 26 33 14 18 1003.0 1003.0 0.8
22/08:30pm 13.3 9.6 11.6 89 0.9 NNW 22 30 12 16 1003.2 - 0.8
22/08:00pm 13.5 7.9 11.5 88 1.1 N 32 41 17 22 1003.2 - 0.8
22/07:30pm 13.1 6.7 12.0 93 0.6 NNW 37 48 20 26 1003.4 - 0.8
22/07:00pm 13.3 6.0 11.6 89 0.9 NNW 41 52 22 28 1003.3 - 0.4
22/06:30pm 14.6 7.1 10.7 77 2.1 NNW 41 59 22 32 1003.1 - 0.2
22/06:01pm 14.9 8.0 10.4 74 2.4 NNW 37 57 20 31 1002.6 - 0.2
22/06:00pm 14.8 8.3 10.5 75 2.3 NNW 35 52 19 28 1002.7 1002.7 0.2
22/05:30pm 14.8 8.3 10.3 74 2.4 NNW 35 41 19 22 1002.9 - 0.2
22/05:01pm 15.1 5.7 10.0 71 2.7 NNW 50 69 27 37 1002.5 - 0.2
22/05:00pm 15.0 5.2 10.1 72 2.6 NNW 52 69 28 37 1002.5 - 0.2
22/04:39pm 15.4 3.7 9.5 68 3.1 NNW 61 72 33 39 1002.0 - 0.2
22/04:31pm 15.2 7.8 9.9 70 2.8 NNW 39 59 21 32 1002.4 - 0.2
22/04:30pm 15.2 7.9 10.1 71 2.7 NNW 39 50 21 27 1002.6 - 0.2
22/04:00pm 15.3 6.9 9.8 69 2.9 NNW 44 67 24 36 1002.7 - 0.2
22/03:32pm 15.1 5.2 9.6 69 2.9 NNW 52 70 28 38 1002.7 - 0.2
22/03:30pm 15.2 4.5 9.5 69 3.0 NNW 56 70 30 38 1002.6 - 0.2
22/03:00pm 15.2 8.2 9.9 70 2.8 NW 37 61 20 33 1002.7 1002.7 0.2
22/02:30pm 15.7 5.7 9.4 66 3.3 NNW 52 69 28 37 1002.6 - 0.2
22/02:05pm 15.3 7.6 10.0 70 2.8 NNW 41 59 22 32 1002.8 - 0.2
22/02:00pm 15.1 8.2 10.4 73 2.5 NNW 37 48 20 26 1003.2 - 0.2
22/01:30pm 14.5 7.7 10.8 78 2.0 NNW 37 56 20 30 1003.6 - 0.2
22/01:07pm 14.5 6.5 10.3 76 2.2 NNW 43 61 23 33 1003.9 - 0.2
22/01:00pm 14.5 6.3 10.3 76 2.2 NNW 44 61 24 33 1003.6 - 0.2
22/12:54pm 14.3 6.7 10.5 78 2.0 NNW 41 59 22 32 1003.7 - 0.2
22/12:30pm 13.9 6.4 10.7 81 1.7 NNW 41 54 22 29 1003.8 - 0.2
22/12:00pm 13.4 4.9 10.8 84 1.4 NNW 46 61 25 33 1003.9 1004.0 0.2
22/11:48am 13.1 4.6 10.8 86 1.2 NNW 46 65 25 35 1003.6 - 0.2
22/11:30am 13.0 4.6 10.9 87 1.1 NNW 46 57 25 31 1004.1 - 0.2
22/11:13am 13.8 5.8 10.6 81 1.7 NNW 43 61 23 33 1003.9 - 0.2
22/11:00am 13.1 5.9 10.6 85 1.3 NNW 39 54 21 29 1004.2 - 0.2
22/10:39am 13.1 5.6 10.8 86 1.2 NNW 41 59 22 32 1004.0 - 0.2
22/10:30am 12.9 5.4 10.8 87 1.1 NNW 41 54 22 29 1004.0 - 0.0
22/10:00am 12.8 4.1 9.9 82 1.5 NNW 46 59 25 32 1004.4 - 0.0
22/09:30am 13.1 4.0 10.0 81 1.6 NNW 48 67 26 36 1003.5 - 0.0
22/09:21am 12.7 3.6 10.0 84 1.4 NNW 48 67 26 36 1003.8 - 0.0
22/09:00am 12.4 4.2 9.7 83 1.4 WNW 43 65 23 35 1004.0 1004.1 0.2
22/08:30am 11.9 3.1 9.4 85 1.3 NNW 46 63 25 34 1004.3 - 0.2
22/08:00am 11.8 2.5 9.0 83 1.4 NNW 48 59 26 32 1004.2 - 0.2
22/07:30am 11.3 2.4 9.1 86 1.1 NNW 46 61 25 33 1004.5 - 0.2
22/07:00am 12.1 3.1 8.7 80 1.7 NNW 46 69 25 37 1004.5 - 0.2
22/06:44am 12.0 3.4 8.8 81 1.6 NNW 44 63 24 34 1004.4 - 0.2
22/06:30am 12.2 2.3 8.4 77 1.9 NNW 50 67 27 36 1004.1 - 0.2
22/06:13am 12.3 3.6 7.6 73 2.3 NNW 43 65 23 35 1004.1 - 0.2
22/06:00am 12.6 5.5 6.4 66 3.0 NW 33 54 18 29 1004.2 1004.3 0.2
22/05:56am 13.0 4.5 5.1 58 3.7 NNW 39 57 21 31 1004.1 - 0.2
22/05:30am 12.9 3.9 4.5 56 3.9 NNW 41 54 22 29 1003.9 - 0.2
22/05:18am 12.8 3.8 4.3 56 3.9 NNW 41 61 22 33 1003.7 - 0.2
22/05:00am 12.6 3.6 4.4 57 3.8 NNW 41 54 22 29 1003.9 - 0.2
22/04:30am 12.7 3.6 3.9 55 4.0 NNW 41 54 22 29 1003.5 - 0.2
22/04:00am 12.5 3.9 4.7 59 3.6 NNW 39 54 21 29 1003.7 - 0.2
22/03:30am 12.4 3.8 4.6 59 3.6 NNW 39 46 21 25 1003.8 - 0.2
22/03:14am 12.5 4.3 4.5 58 3.7 NNW 37 57 20 31 1003.9 - 0.2
22/03:00am 12.4 3.3 3.8 55 3.9 NNW 41 56 22 30 1004.0 1004.1 0.2
22/02:30am 12.4 3.3 4.1 57 3.8 NNW 41 52 22 28 1004.6 - 0.2
22/02:00am 12.1 2.9 3.4 55 3.9 NNW 41 52 22 28 1004.8 - 0.2
22/01:30am 11.7 3.3 3.7 58 3.6 NNW 37 46 20 25 1005.8 - 0.2
22/01:09am 11.4 3.8 4.1 61 3.3 NNW 33 52 18 28 1006.0 - 0.2
22/01:00am 11.3 3.9 4.8 64 3.0 NNW 33 48 18 26 1006.4 - 0.2
22/12:30am 11.0 4.4 4.1 62 3.1 N 28 41 15 22 1006.7 - 0.2
22/12:00am 10.8 4.3 4.7 66 2.8 N 28 43 15 23 1007.2 1007.3 0.2
 
Date/Time
EDT
Temp
°C
App
Temp
°C
Dew
Point
Rel
Hum
%
Delta-T
°C
Wind Press
QNH
hPa
Press
MSL
hPa
Rain
since 9 am
mm
Dir
 
Spd
km/h
Gust
km/h
Spd
kts
Gust
kts
21/11:30pm 11.0 5.1 5.6 69 2.5 NNW 26 37 14 20 1007.7 - 0.2
21/11:00pm 10.9 4.5 5.3 68 2.6 N 28 39 15 21 1007.7 - 0.2
21/10:30pm 10.8 4.0 4.9 67 2.7 NNW 30 39 16 21 1008.1 - 0.2
21/10:00pm 10.9 3.6 5.5 69 2.5 NNW 33 41 18 22 1008.3 - 0.2
21/09:30pm 10.9 3.1 5.0 67 2.7 NNW 35 44 19 24 1008.4 - 0.2
21/09:00pm 10.6 3.2 4.9 68 2.6 NNW 33 43 18 23 1008.0 1008.1 0.2
21/08:30pm 10.6 2.4 4.7 67 2.7 NNW 37 44 20 24 1008.0 - 0.2
21/08:00pm 10.5 2.7 4.8 68 2.6 NNW 35 44 19 24 1008.0 - 0.2
21/07:30pm 10.7 1.3 4.3 64 2.9 NNW 43 48 23 26 1007.7 - 0.2
21/07:00pm 11.0 1.2 5.2 67 2.7 NW 46 52 25 28 1007.8 - 0.2
21/06:30pm 10.9 1.9 4.5 64 2.9 NW 41 48 22 26 1007.2 - 0.2
21/06:00pm 10.9 1.5 4.3 64 3.0 NW 43 48 23 26 1007.1 1007.2 0.2
21/05:30pm 11.4 1.8 4.6 63 3.1 NW 44 48 24 26 1007.3 - 0.2
21/05:00pm 11.5 3.2 4.0 60 3.4 NW 37 43 20 23 1007.1 - 0.2
21/04:30pm 11.5 2.7 3.7 58 3.5 NW 39 46 21 25 1007.2 - 0.2
21/04:00pm 11.8 3.6 4.6 61 3.3 NW 37 43 20 23 1007.3 - 0.2
21/03:30pm 11.9 4.1 4.7 61 3.3 NW 35 41 19 22 1007.2 - 0.2
21/03:00pm 11.9 4.9 4.2 59 3.5 NW 30 44 16 24 1007.1 1007.2 0.2
21/02:30pm 11.6 4.3 5.4 65 2.9 NW 33 41 18 22 1007.0 - 0.2
21/02:00pm 12.5 5.7 6.7 68 2.8 NW 32 37 17 20 1006.9 - 0.2
21/01:30pm 11.3 4.7 6.0 70 2.5 NW 30 35 16 19 1006.8 - 0.2
21/01:00pm 11.8 6.5 6.6 70 2.5 WNW 24 30 13 16 1006.7 - 0.0
21/12:30pm 10.7 5.2 5.8 72 2.3 WNW 24 30 13 16 1006.6 - 0.0
21/12:00pm 11.2 5.8 6.4 72 2.3 WNW 24 30 13 16 1006.6 1006.7 0.0
21/11:30am 10.4 5.1 5.2 70 2.4 W 22 30 12 16 1006.6 - 0.0
21/11:00am 10.4 6.2 5.9 73 2.1 W 17 22 9 12 1006.4 - 0.0
21/10:30am 10.2 5.4 5.7 73 2.1 WSW 20 24 11 13 1006.1 - 0.0
21/10:00am 9.7 4.5 5.3 74 2.0 SW 22 30 12 16 1005.7 - 0.0
21/09:30am 9.1 3.0 4.7 74 2.0 SW 26 33 14 18 1005.4 - 0.0
21/09:00am 9.1 6.0 7.2 88 0.9 SW 13 32 7 17 1005.1 1005.2 12.0
21/08:30am 8.8 5.8 7.8 93 0.5 SSW 13 17 7 9 1004.8 - 12.0
21/08:00am 8.7 2.0 8.1 96 0.3 SSW 33 43 18 23 1004.1 - 12.0
21/07:30am 8.9 4.8 8.5 97 0.2 SSW 20 30 11 16 1003.9 - 11.8
21/07:00am 9.1 2.6 8.9 99 0.1 S 33 39 18 21 1002.9 - 11.6
21/06:30am 9.3 2.8 8.9 97 0.2 S 33 39 18 21 1002.4 - 11.2
21/06:00am 9.4 3.1 9.0 97 0.2 S 32 39 17 21 1001.6 1001.7 11.2
21/05:30am 9.5 1.9 9.1 97 0.2 S 39 43 21 23 1001.0 - 11.2
21/05:00am 9.8 2.7 9.6 99 0.1 S 37 43 20 23 1000.9 - 11.0
21/04:30am 10.2 4.0 10.0 99 0.1 S 33 41 18 22 1000.7 - 10.8
21/04:00am 10.6 5.1 10.4 99 0.1 S 30 37 16 20 1000.2 - 10.8
21/03:30am 10.6 7.1 10.2 97 0.2 WNW 19 22 10 12 1000.4 - 10.4
21/03:00am 10.8 7.2 10.4 97 0.2 W 20 26 11 14 1000.3 1000.4 10.2
21/02:30am 10.9 7.5 10.7 99 0.1 WNW 19 22 10 12 1000.2 - 10.0
21/02:00am 10.8 8.9 10.4 97 0.2 WNW 11 15 6 8 1000.1 - 9.4
21/01:30am 11.2 8.6 10.8 97 0.2 SW 15 19 8 10 999.9 - 9.2
21/01:00am 11.2 9.4 11.0 99 0.1 WNW 11 15 6 8 1000.1 - 8.0

Other Formats:

Comma delimited format used in spreadsheet applications
http://www.bom.gov.au/fwo/IDT60801/IDT60801.94962.axf

JavaScript Object Notation format (JSON) in row-major order
http://www.bom.gov.au/fwo/IDT60801/IDT60801.94962.json